createdAt,value
2022-12-17T00:00:54.175Z,99.99
2022-12-17T00:01:53.978Z,99.99
2022-12-17T00:02:53.984Z,99.99
2022-12-17T00:03:53.896Z,99.99
2022-12-17T00:04:53.691Z,99.99
2022-12-17T00:05:53.606Z,99.99
2022-12-17T00:06:53.510Z,99.99
2022-12-17T00:07:53.424Z,99.99
2022-12-17T00:08:53.337Z,99.99
2022-12-17T00:09:53.250Z,99.99
2022-12-17T00:10:53.154Z,99.99
2022-12-17T00:11:53.068Z,99.99
2022-12-17T00:12:52.983Z,99.99
2022-12-17T00:13:52.887Z,99.99
2022-12-17T00:14:52.796Z,99.99
2022-12-17T00:15:52.761Z,99.99
2022-12-17T00:16:52.623Z,99.99
2022-12-17T00:17:52.534Z,99.99
2022-12-17T00:18:52.443Z,99.99
2022-12-17T00:19:52.353Z,99.99
2022-12-17T00:20:52.263Z,99.99
2022-12-17T00:21:52.173Z,99.99
2022-12-17T00:22:52.085Z,99.99
2022-12-17T00:23:51.996Z,99.99
2022-12-17T00:24:51.922Z,99.99
2022-12-17T00:25:51.817Z,99.99
2022-12-17T00:26:51.725Z,99.99
2022-12-17T00:27:51.641Z,99.99
2022-12-17T00:28:51.546Z,99.99
2022-12-17T00:29:51.466Z,99.99
2022-12-17T00:30:51.365Z,99.99
2022-12-17T00:31:51.307Z,99.99
2022-12-17T00:32:51.194Z,99.99
2022-12-17T00:33:51.098Z,99.99
2022-12-17T00:34:51.010Z,99.99
2022-12-17T00:35:50.921Z,99.99
2022-12-17T00:36:50.830Z,99.99
2022-12-17T00:37:50.746Z,99.99
2022-12-17T00:38:50.651Z,99.99
2022-12-17T00:39:53.512Z,99.99
2022-12-17T00:40:50.475Z,99.99
2022-12-17T00:41:50.388Z,99.99
2022-12-17T00:42:50.297Z,99.99
2022-12-17T00:43:50.207Z,99.99
2022-12-17T00:44:50.118Z,99.99
2022-12-17T00:45:50.028Z,99.99
2022-12-17T00:46:50.053Z,99.99
2022-12-17T00:47:49.850Z,99.99
2022-12-17T00:48:49.762Z,99.99
2022-12-17T00:49:49.666Z,99.99
2022-12-17T00:50:49.584Z,99.99
2022-12-17T00:51:49.492Z,99.99
2022-12-17T00:52:49.401Z,99.99
2022-12-17T00:53:49.318Z,99.99
2022-12-17T00:54:49.224Z,99.99
2022-12-17T00:55:49.132Z,99.99
2022-12-17T00:56:49.040Z,99.99
2022-12-17T00:57:48.957Z,99.99
2022-12-17T00:58:48.866Z,99.99
2022-12-17T00:59:48.785Z,99.99
2022-12-17T01:00:48.763Z,99.99
2022-12-17T01:01:48.785Z,99.99
2022-12-17T01:02:48.692Z,99.99
2022-12-17T01:03:48.421Z,99.99
2022-12-17T01:04:48.332Z,99.99
2022-12-17T01:05:48.236Z,99.99
2022-12-17T01:06:48.148Z,99.99
2022-12-17T01:07:48.064Z,99.99
2022-12-17T01:08:47.973Z,99.99
2022-12-17T01:09:47.880Z,99.99
2022-12-17T01:10:47.791Z,99.99
2022-12-17T01:11:47.703Z,99.99
2022-12-17T01:12:47.614Z,99.99
2022-12-17T01:13:47.525Z,99.99
2022-12-17T01:14:47.432Z,99.99
2022-12-17T01:15:47.348Z,99.99
2022-12-17T01:16:47.317Z,99.99
2022-12-17T01:17:47.168Z,99.99
2022-12-17T01:18:47.079Z,99.99
2022-12-17T01:19:46.985Z,99.99
2022-12-17T01:20:46.903Z,99.99
2022-12-17T01:21:46.809Z,99.99
2022-12-17T01:22:46.718Z,99.99
2022-12-17T01:23:46.639Z,99.99
2022-12-17T01:24:46.537Z,99.99
2022-12-17T01:25:46.453Z,99.99
2022-12-17T01:26:46.361Z,99.99
2022-12-17T01:27:46.276Z,99.99
2022-12-17T01:28:46.182Z,99.99
2022-12-17T01:29:46.092Z,99.99
2022-12-17T01:30:46.007Z,99.99
2022-12-17T01:31:45.959Z,99.99
2022-12-17T01:32:45.824Z,99.99
2022-12-17T01:33:45.740Z,99.99
2022-12-17T01:34:45.648Z,99.99
2022-12-17T01:35:45.557Z,99.99
2022-12-17T01:36:45.468Z,99.99
2022-12-17T01:37:45.385Z,99.99
2022-12-17T01:38:45.288Z,99.99
2022-12-17T01:39:45.201Z,99.99
2022-12-17T01:40:45.113Z,99.99
2022-12-17T01:41:45.021Z,99.99
2022-12-17T01:42:44.933Z,99.99
2022-12-17T01:43:44.842Z,99.99
2022-12-17T01:44:44.758Z,99.99
2022-12-17T01:45:44.697Z,99.99
2022-12-17T01:46:44.574Z,99.99
2022-12-17T01:47:44.492Z,99.99
2022-12-17T01:48:44.493Z,99.99
2022-12-17T01:49:44.308Z,99.99
2022-12-17T01:50:44.220Z,99.99
2022-12-17T01:51:44.129Z,99.99
2022-12-17T01:52:44.042Z,99.99
2022-12-17T01:53:43.957Z,99.99
2022-12-17T01:54:43.862Z,99.99
2022-12-17T01:55:43.776Z,99.99
2022-12-17T01:56:43.685Z,99.99
2022-12-17T01:57:43.607Z,99.99
2022-12-17T01:58:43.506Z,99.99
2022-12-17T01:59:43.419Z,99.99
2022-12-17T02:00:43.362Z,99.99
2022-12-17T02:01:43.418Z,99.99
2022-12-17T02:02:43.224Z,99.99
2022-12-17T02:03:43.061Z,99.99
2022-12-17T02:04:42.973Z,99.99
2022-12-17T02:05:42.879Z,99.99
2022-12-17T02:06:42.793Z,99.99
2022-12-17T02:07:42.808Z,99.99
2022-12-17T02:08:42.614Z,99.99
2022-12-17T02:09:42.524Z,99.99
2022-12-17T02:10:42.435Z,99.99
2022-12-17T02:11:42.348Z,99.99
2022-12-17T02:12:42.259Z,99.99
2022-12-17T02:13:42.166Z,99.99
2022-12-17T02:14:42.078Z,99.93
2022-12-17T02:15:41.996Z,99.99
2022-12-17T02:16:41.926Z,99.99
2022-12-17T02:17:41.810Z,99.99
2022-12-17T02:18:41.724Z,99.99
2022-12-17T02:19:41.631Z,99.99
2022-12-17T02:20:41.545Z,99.99
2022-12-17T02:21:41.457Z,99.99
2022-12-17T02:22:41.365Z,99.99
2022-12-17T02:23:41.272Z,99.99
2022-12-17T02:24:41.183Z,99.99
2022-12-17T02:25:41.094Z,99.65
2022-12-17T02:26:41.007Z,99.99
2022-12-17T02:27:40.915Z,99.99
2022-12-17T02:28:40.831Z,99.74
2022-12-17T02:29:40.744Z,99.55
2022-12-17T02:30:40.650Z,99.46
2022-12-17T02:31:40.624Z,98.99
2022-12-17T02:32:40.472Z,99.27
2022-12-17T02:33:40.379Z,99.46
2022-12-17T02:34:40.291Z,99.27
2022-12-17T02:35:40.201Z,99.08
2022-12-17T02:36:40.120Z,99.18
2022-12-17T02:37:40.027Z,99.03
2022-12-17T02:38:39.938Z,99.18
2022-12-17T02:39:39.844Z,99.37
2022-12-17T02:40:39.766Z,99.46
2022-12-17T02:41:39.670Z,99.55
2022-12-17T02:42:39.575Z,99.22
2022-12-17T02:43:39.488Z,99.22
2022-12-17T02:44:39.401Z,98.90
2022-12-17T02:45:39.361Z,98.65
2022-12-17T02:46:39.217Z,98.09
2022-12-17T02:47:39.132Z,98.47
2022-12-17T02:48:39.044Z,97.90
2022-12-17T02:49:38.947Z,97.90
2022-12-17T02:50:38.866Z,98.37
2022-12-17T02:51:38.769Z,98.18
2022-12-17T02:52:38.688Z,98.65
2022-12-17T02:53:38.701Z,98.47
2022-12-17T02:54:38.508Z,97.71
2022-12-17T02:55:38.411Z,98.47
2022-12-17T02:56:38.327Z,98.37
2022-12-17T02:57:43.438Z,98.37
2022-12-17T02:58:38.155Z,98.47
2022-12-17T02:59:38.054Z,98.09
2022-12-17T03:00:37.966Z,98.37
2022-12-17T03:01:37.953Z,98.75
2022-12-17T03:02:37.907Z,97.99
2022-12-17T03:03:38.039Z,97.71
2022-12-17T03:04:37.611Z,96.77
2022-12-17T03:05:45.744Z,96.30
2022-12-17T03:06:37.430Z,97.05
2022-12-17T03:07:37.342Z,97.14
2022-12-17T03:08:37.258Z,97.61
2022-12-17T03:09:37.162Z,97.90
2022-12-17T03:10:37.072Z,98.37
2022-12-17T03:11:36.983Z,97.90
2022-12-17T03:12:36.900Z,97.99
2022-12-17T03:13:37.057Z,97.90
2022-12-17T03:14:36.720Z,97.90
2022-12-17T03:15:36.630Z,97.71
2022-12-17T03:16:38.103Z,97.24
2022-12-17T03:17:36.451Z,96.39
2022-12-17T03:18:36.354Z,95.40
2022-12-17T03:19:36.262Z,93.61
2022-12-17T03:20:36.176Z,92.85
2022-12-17T03:21:36.080Z,93.32
2022-12-17T03:22:35.993Z,94.17
2022-12-17T03:23:36.332Z,95.31
2022-12-17T03:24:35.841Z,96.72
2022-12-17T03:25:35.720Z,97.56
2022-12-17T03:26:35.634Z,97.85
2022-12-17T03:27:35.544Z,97.66
2022-12-17T03:28:35.481Z,97.94
2022-12-17T03:29:35.364Z,98.41
2022-12-17T03:30:36.884Z,98.41
2022-12-17T03:31:35.222Z,98.98
2022-12-17T03:32:35.094Z,99.26
2022-12-17T03:33:35.655Z,99.83
2022-12-17T03:34:34.915Z,99.26
2022-12-17T03:35:34.824Z,99.99
2022-12-17T03:36:34.733Z,99.99
2022-12-17T03:37:34.644Z,99.99
2022-12-17T03:38:34.556Z,99.99
2022-12-17T03:39:34.462Z,99.99
2022-12-17T03:40:34.379Z,99.93
2022-12-17T03:41:34.285Z,99.83
2022-12-17T03:42:34.195Z,99.83
2022-12-17T03:43:34.503Z,99.17
2022-12-17T03:44:34.016Z,97.85
2022-12-17T03:45:33.921Z,95.59
2022-12-17T03:46:33.937Z,94.27
2022-12-17T03:47:33.743Z,93.80
2022-12-17T03:48:33.654Z,93.98
2022-12-17T03:49:33.561Z,93.42
2022-12-17T03:50:33.476Z,93.70
2022-12-17T03:51:33.404Z,93.84
2022-12-17T03:52:33.290Z,93.56
2022-12-17T03:53:33.592Z,92.99
2022-12-17T03:54:33.109Z,92.62
2022-12-17T03:55:33.020Z,92.52
2022-12-17T03:56:32.929Z,93.09
2022-12-17T03:57:32.846Z,94.88
2022-12-17T03:58:32.758Z,95.73
2022-12-17T03:59:32.666Z,95.26
2022-12-17T04:00:32.571Z,94.60
2022-12-17T04:01:32.611Z,94.22
2022-12-17T04:02:32.617Z,93.18
2022-12-17T04:03:32.412Z,92.62
2022-12-17T04:04:32.209Z,91.86
2022-12-17T04:05:32.115Z,91.96
2022-12-17T04:06:32.026Z,92.52
2022-12-17T04:07:31.934Z,93.18
2022-12-17T04:08:31.846Z,93.56
2022-12-17T04:09:31.758Z,94.13
2022-12-17T04:10:31.666Z,95.82
2022-12-17T04:11:31.569Z,96.01
2022-12-17T04:12:31.491Z,95.73
2022-12-17T04:13:33.685Z,95.54
2022-12-17T04:14:31.298Z,96.39
2022-12-17T04:15:31.238Z,96.48
2022-12-17T04:16:31.125Z,96.86
2022-12-17T04:17:31.025Z,96.95
2022-12-17T04:18:30.935Z,97.14
2022-12-17T04:19:30.850Z,97.14
2022-12-17T04:20:30.759Z,96.95
2022-12-17T04:21:30.666Z,97.61
2022-12-17T04:22:30.577Z,97.61
2022-12-17T04:23:30.518Z,98.27
2022-12-17T04:24:30.397Z,98.36
2022-12-17T04:25:30.302Z,98.08
2022-12-17T04:26:30.213Z,97.61
2022-12-17T04:27:30.131Z,96.86
2022-12-17T04:28:30.037Z,97.24
2022-12-17T04:29:29.939Z,97.14
2022-12-17T04:30:29.854Z,97.24
2022-12-17T04:31:29.810Z,98.46
2022-12-17T04:32:34.922Z,97.99
2022-12-17T04:33:29.582Z,98.83
2022-12-17T04:34:29.492Z,98.55
2022-12-17T04:35:29.396Z,97.61
2022-12-17T04:36:29.302Z,96.67
2022-12-17T04:37:29.223Z,96.39
2022-12-17T04:38:29.121Z,96.77
2022-12-17T04:39:29.030Z,96.77
2022-12-17T04:40:28.940Z,97.05
2022-12-17T04:41:28.852Z,97.52
2022-12-17T04:42:28.760Z,97.71
2022-12-17T04:43:28.663Z,98.46
2022-12-17T04:44:28.574Z,98.83
2022-12-17T04:45:28.481Z,98.46
2022-12-17T04:46:28.425Z,98.65
2022-12-17T04:47:28.301Z,97.99
2022-12-17T04:48:28.213Z,98.18
2022-12-17T04:49:28.120Z,98.08
2022-12-17T04:50:28.036Z,98.36
2022-12-17T04:51:27.934Z,98.08
2022-12-17T04:52:27.849Z,97.61
2022-12-17T04:53:27.753Z,97.52
2022-12-17T04:54:27.666Z,97.14
2022-12-17T04:55:27.571Z,96.77
2022-12-17T04:56:27.488Z,95.54
2022-12-17T04:57:27.394Z,95.07
2022-12-17T04:58:27.302Z,94.41
2022-12-17T04:59:27.210Z,94.31
2022-12-17T05:00:27.122Z,94.98
2022-12-17T05:01:27.126Z,96.01
2022-12-17T05:02:27.071Z,96.48
2022-12-17T05:03:26.876Z,96.86
2022-12-17T05:04:26.761Z,97.89
2022-12-17T05:05:26.667Z,97.24
2022-12-17T05:06:26.572Z,97.61
2022-12-17T05:07:26.486Z,97.89
2022-12-17T05:08:26.388Z,97.61
2022-12-17T05:09:26.301Z,97.61
2022-12-17T05:10:26.209Z,97.61
2022-12-17T05:11:26.119Z,97.52
2022-12-17T05:12:26.030Z,97.99
2022-12-17T05:13:25.933Z,97.99
2022-12-17T05:14:25.845Z,98.08
2022-12-17T05:15:25.759Z,98.18
2022-12-17T05:16:25.722Z,97.80
2022-12-17T05:17:25.567Z,97.71
2022-12-17T05:18:25.494Z,97.80
2022-12-17T05:19:25.384Z,97.61
2022-12-17T05:20:25.296Z,97.61
2022-12-17T05:21:28.094Z,97.89
2022-12-17T05:22:25.120Z,97.52
2022-12-17T05:23:25.018Z,97.71
2022-12-17T05:24:24.932Z,96.30
2022-12-17T05:25:24.841Z,95.35
2022-12-17T05:26:24.745Z,94.22
2022-12-17T05:27:24.658Z,93.75
2022-12-17T05:28:24.565Z,94.41
2022-12-17T05:29:24.472Z,95.16
2022-12-17T05:30:24.381Z,95.92
2022-12-17T05:31:24.415Z,96.39
2022-12-17T05:32:24.271Z,96.39
2022-12-17T05:33:24.109Z,96.39
2022-12-17T05:34:24.015Z,95.54
2022-12-17T05:35:23.923Z,95.54
2022-12-17T05:36:23.833Z,95.73
2022-12-17T05:37:23.742Z,95.26
2022-12-17T05:38:23.655Z,95.73
2022-12-17T05:39:23.559Z,95.54
2022-12-17T05:40:23.469Z,94.88
2022-12-17T05:41:23.373Z,93.84
2022-12-17T05:42:23.288Z,93.42
2022-12-17T05:43:23.191Z,92.95
2022-12-17T05:44:23.100Z,94.08
2022-12-17T05:45:23.007Z,94.74
2022-12-17T05:46:23.010Z,94.45
2022-12-17T05:47:22.828Z,93.61
2022-12-17T05:48:22.847Z,91.06
2022-12-17T05:49:22.641Z,90.12
2022-12-17T05:50:22.554Z,88.71
2022-12-17T05:51:22.461Z,89.28
2022-12-17T05:52:22.378Z,88.24
2022-12-17T05:53:22.273Z,88.34
2022-12-17T05:54:22.185Z,88.34
2022-12-17T05:55:22.091Z,88.34
2022-12-17T05:56:22.006Z,88.24
2022-12-17T05:57:21.910Z,88.71
2022-12-17T05:58:21.818Z,89.75
2022-12-17T05:59:21.729Z,89.94
2022-12-17T06:00:21.637Z,90.12
2022-12-17T06:01:21.602Z,90.59
2022-12-17T06:02:21.505Z,91.16
2022-12-17T06:03:21.462Z,91.06
2022-12-17T06:04:21.270Z,92.19
2022-12-17T06:05:21.180Z,93.61
2022-12-17T06:06:21.084Z,93.23
2022-12-17T06:07:20.994Z,93.70
2022-12-17T06:08:20.902Z,93.51
2022-12-17T06:09:20.806Z,93.42
2022-12-17T06:10:20.720Z,94.36
2022-12-17T06:11:20.629Z,94.74
2022-12-17T06:12:20.535Z,95.02
2022-12-17T06:13:20.439Z,94.36
2022-12-17T06:14:20.352Z,93.70
2022-12-17T06:15:20.258Z,93.89
2022-12-17T06:16:20.214Z,94.17
2022-12-17T06:17:20.077Z,93.42
2022-12-17T06:18:19.983Z,93.23
2022-12-17T06:19:19.889Z,93.23
2022-12-17T06:20:19.798Z,93.23
2022-12-17T06:21:19.707Z,92.85
2022-12-17T06:22:19.611Z,93.23
2022-12-17T06:23:19.525Z,93.32
2022-12-17T06:24:19.435Z,93.70
2022-12-17T06:25:19.342Z,93.32
2022-12-17T06:26:19.249Z,92.57
2022-12-17T06:27:19.159Z,90.78
2022-12-17T06:28:19.061Z,89.84
2022-12-17T06:29:18.967Z,89.75
2022-12-17T06:30:19.308Z,89.75
2022-12-17T06:31:18.813Z,89.84
2022-12-17T06:32:18.696Z,90.22
2022-12-17T06:33:18.600Z,91.16
2022-12-17T06:34:18.506Z,91.91
2022-12-17T06:35:18.416Z,93.23
2022-12-17T06:36:22.537Z,94.74
2022-12-17T06:37:18.234Z,94.93
2022-12-17T06:38:18.145Z,94.27
2022-12-17T06:39:18.050Z,93.42
2022-12-17T06:40:17.955Z,93.51
2022-12-17T06:41:17.872Z,93.51
2022-12-17T06:42:17.770Z,93.70
2022-12-17T06:43:17.689Z,92.47
2022-12-17T06:44:17.594Z,91.16
2022-12-17T06:45:17.496Z,90.59
2022-12-17T06:46:17.438Z,90.78
2022-12-17T06:47:17.313Z,91.53
2022-12-17T06:48:17.218Z,92.38
2022-12-17T06:49:17.124Z,92.29
2022-12-17T06:50:17.034Z,92.38
2022-12-17T06:51:16.944Z,93.13
2022-12-17T06:52:16.858Z,93.70
2022-12-17T06:53:16.756Z,92.85
2022-12-17T06:54:16.662Z,92.38
2022-12-17T06:55:16.575Z,91.44
2022-12-17T06:56:16.480Z,90.88
2022-12-17T06:57:16.404Z,91.16
2022-12-17T06:58:16.292Z,92.10
2022-12-17T06:59:16.204Z,93.23
2022-12-17T07:00:16.115Z,93.42
2022-12-17T07:01:16.098Z,94.27
2022-12-17T07:02:16.049Z,94.45
2022-12-17T07:03:15.913Z,94.64
2022-12-17T07:04:15.739Z,93.32
2022-12-17T07:05:15.650Z,92.19
2022-12-17T07:06:15.559Z,91.72
2022-12-17T07:07:15.469Z,92.47
2022-12-17T07:08:15.376Z,93.23
2022-12-17T07:09:15.281Z,93.89
2022-12-17T07:10:15.188Z,94.27
2022-12-17T07:11:15.093Z,93.51
2022-12-17T07:12:15.053Z,93.23
2022-12-17T07:13:14.918Z,92.85
2022-12-17T07:14:14.817Z,93.23
2022-12-17T07:15:14.728Z,93.32
2022-12-17T07:16:14.679Z,93.79
2022-12-17T07:17:14.544Z,94.36
2022-12-17T07:18:14.448Z,94.45
2022-12-17T07:19:14.365Z,94.83
2022-12-17T07:20:14.270Z,94.64
2022-12-17T07:21:14.176Z,93.13
2022-12-17T07:22:14.082Z,92.10
2022-12-17T07:23:13.991Z,91.16
2022-12-17T07:24:13.904Z,91.25
2022-12-17T07:25:13.803Z,90.97
2022-12-17T07:26:13.708Z,90.22
2022-12-17T07:27:13.625Z,90.12
2022-12-17T07:28:13.529Z,90.97
2022-12-17T07:29:13.434Z,91.16
2022-12-17T07:30:13.339Z,91.16
2022-12-17T07:31:13.297Z,91.72
2022-12-17T07:32:13.154Z,91.82
2022-12-17T07:33:13.072Z,91.91
2022-12-17T07:34:12.968Z,92.66
2022-12-17T07:35:12.876Z,93.23
2022-12-17T07:36:12.784Z,93.23
2022-12-17T07:37:17.354Z,93.13
2022-12-17T07:38:12.631Z,92.76
2022-12-17T07:39:12.506Z,92.95
2022-12-17T07:40:12.421Z,93.13
2022-12-17T07:41:12.324Z,93.04
2022-12-17T07:42:12.232Z,93.32
2022-12-17T07:43:12.142Z,92.85
2022-12-17T07:44:12.063Z,92.00
2022-12-17T07:45:11.950Z,91.06
2022-12-17T07:46:11.877Z,91.06
2022-12-17T07:47:11.770Z,91.35
2022-12-17T07:48:11.678Z,91.16
2022-12-17T07:49:11.589Z,90.78
2022-12-17T07:50:11.492Z,91.06
2022-12-17T07:51:11.398Z,90.22
2022-12-17T07:52:11.303Z,89.28
2022-12-17T07:53:11.214Z,89.56
2022-12-17T07:54:11.120Z,89.09
2022-12-17T07:55:14.265Z,89.37
2022-12-17T07:56:10.938Z,89.47
2022-12-17T07:57:10.848Z,89.28
2022-12-17T07:58:10.751Z,89.75
2022-12-17T07:59:10.660Z,90.12
2022-12-17T08:00:10.570Z,90.17
2022-12-17T08:01:10.514Z,90.36
2022-12-17T08:02:10.610Z,90.26
2022-12-17T08:03:10.419Z,88.95
2022-12-17T08:04:10.201Z,89.23
2022-12-17T08:05:10.110Z,89.04
2022-12-17T08:06:10.015Z,89.04
2022-12-17T08:07:13.344Z,89.70
2022-12-17T08:08:09.831Z,88.57
2022-12-17T08:09:09.811Z,89.70
2022-12-17T08:10:09.643Z,89.79
2022-12-17T08:11:09.565Z,90.17
2022-12-17T08:12:09.468Z,90.92
2022-12-17T08:13:13.905Z,90.83
2022-12-17T08:14:09.279Z,90.26
2022-12-17T08:15:09.189Z,90.08
2022-12-17T08:16:09.131Z,89.89
2022-12-17T08:17:09.005Z,89.79
2022-12-17T08:18:08.914Z,90.22
2022-12-17T08:19:08.824Z,88.99
2022-12-17T08:20:08.726Z,87.19
2022-12-17T08:21:08.649Z,86.72
2022-12-17T08:22:08.548Z,85.88
2022-12-17T08:23:08.455Z,85.69
2022-12-17T08:24:08.368Z,85.97
2022-12-17T08:25:08.273Z,85.31
2022-12-17T08:26:08.179Z,85.13
2022-12-17T08:27:08.093Z,85.78
2022-12-17T08:28:15.795Z,85.88
2022-12-17T08:29:07.907Z,86.25
2022-12-17T08:30:07.822Z,87.10
2022-12-17T08:31:07.900Z,87.10
2022-12-17T08:32:07.633Z,87.01
2022-12-17T08:33:07.543Z,87.19
2022-12-17T08:34:08.217Z,87.38
2022-12-17T08:35:07.367Z,87.57
2022-12-17T08:36:07.269Z,87.10
2022-12-17T08:37:07.180Z,86.91
2022-12-17T08:38:07.086Z,86.63
2022-12-17T08:39:07.001Z,86.54
2022-12-17T08:40:06.905Z,86.21
2022-12-17T08:41:06.815Z,86.02
2022-12-17T08:42:06.724Z,84.98
2022-12-17T08:43:06.635Z,85.36
2022-12-17T08:44:06.550Z,85.64
2022-12-17T08:45:06.454Z,85.54
2022-12-17T08:46:06.467Z,84.79
2022-12-17T08:47:06.271Z,84.79
2022-12-17T08:48:06.180Z,84.51
2022-12-17T08:49:06.094Z,84.69
2022-12-17T08:50:05.998Z,84.22
2022-12-17T08:51:05.916Z,84.32
2022-12-17T08:52:05.821Z,84.51
2022-12-17T08:53:05.729Z,84.13
2022-12-17T08:54:05.647Z,84.36
2022-12-17T08:55:05.553Z,83.98
2022-12-17T08:56:05.460Z,83.80
2022-12-17T08:57:05.369Z,83.80
2022-12-17T08:58:05.277Z,83.51
2022-12-17T08:59:05.192Z,83.51
2022-12-17T09:00:05.111Z,83.14
2022-12-17T09:01:05.122Z,83.42
2022-12-17T09:02:05.085Z,84.03
2022-12-17T09:03:04.897Z,84.32
2022-12-17T09:04:04.740Z,84.45
2022-12-17T09:05:04.648Z,85.30
2022-12-17T09:06:04.559Z,85.02
2022-12-17T09:07:04.472Z,84.55
2022-12-17T09:08:04.387Z,84.92
2022-12-17T09:09:04.295Z,84.55
2022-12-17T09:10:04.198Z,83.89
2022-12-17T09:11:04.113Z,83.61
2022-12-17T09:12:04.018Z,83.51
2022-12-17T09:13:05.161Z,83.98
2022-12-17T09:14:03.842Z,83.80
2022-12-17T09:15:03.754Z,83.61
2022-12-17T09:16:03.666Z,83.14
2022-12-17T09:17:03.631Z,82.95
2022-12-17T09:18:03.485Z,82.89
2022-12-17T09:19:03.399Z,82.89
2022-12-17T09:20:03.307Z,82.04
2022-12-17T09:21:03.219Z,82.23
2022-12-17T09:22:03.129Z,82.14
2022-12-17T09:23:03.042Z,81.95
2022-12-17T09:24:02.960Z,81.95
2022-12-17T09:25:02.864Z,81.76
2022-12-17T09:26:02.773Z,81.57
2022-12-17T09:27:02.683Z,81.57
2022-12-17T09:28:02.596Z,81.57
2022-12-17T09:29:02.514Z,81.85
2022-12-17T09:30:02.419Z,81.57
2022-12-17T09:31:02.406Z,81.57
2022-12-17T09:32:02.241Z,81.57
2022-12-17T09:33:02.156Z,81.57
2022-12-17T09:34:02.068Z,81.95
2022-12-17T09:35:01.977Z,82.04
2022-12-17T09:36:01.894Z,81.85
2022-12-17T09:37:01.796Z,81.85
2022-12-17T09:38:01.709Z,81.85
2022-12-17T09:39:01.620Z,82.23
2022-12-17T09:40:01.530Z,82.14
2022-12-17T09:41:01.442Z,82.04
2022-12-17T09:42:01.359Z,82.14
2022-12-17T09:43:01.276Z,82.32
2022-12-17T09:44:01.181Z,82.61
2022-12-17T09:45:01.089Z,82.84
2022-12-17T09:46:01.056Z,83.03
2022-12-17T09:47:00.915Z,83.03
2022-12-17T09:48:00.832Z,82.28
2022-12-17T09:49:00.741Z,82.37
2022-12-17T09:50:00.649Z,81.99
2022-12-17T09:51:00.564Z,81.61
2022-12-17T09:52:00.477Z,81.90
2022-12-17T09:53:00.387Z,81.61
2022-12-17T09:54:00.296Z,81.71
2022-12-17T09:55:01.618Z,81.90
2022-12-17T09:56:00.125Z,81.61
2022-12-17T09:57:00.040Z,81.33
2022-12-17T09:57:59.951Z,81.04
2022-12-17T09:58:59.862Z,81.61
2022-12-17T09:59:59.785Z,81.99
2022-12-17T10:01:01.195Z,82.37
2022-12-17T10:01:59.751Z,81.99
2022-12-17T10:02:59.755Z,81.71
2022-12-17T10:03:59.519Z,81.99
2022-12-17T10:04:59.340Z,82.31
2022-12-17T10:05:59.249Z,82.31
2022-12-17T10:06:59.162Z,82.22
2022-12-17T10:07:59.075Z,81.84
2022-12-17T10:08:59.003Z,81.74
2022-12-17T10:09:58.902Z,81.27
2022-12-17T10:10:58.816Z,80.90
2022-12-17T10:11:58.733Z,80.80
2022-12-17T10:12:58.644Z,80.90
2022-12-17T10:13:58.554Z,80.90
2022-12-17T10:14:58.466Z,80.62
2022-12-17T10:15:58.402Z,80.90
2022-12-17T10:16:58.291Z,80.71
2022-12-17T10:17:58.206Z,80.80
2022-12-17T10:18:58.121Z,80.71
2022-12-17T10:19:58.040Z,80.90
2022-12-17T10:20:57.948Z,80.99
2022-12-17T10:21:57.857Z,80.14
2022-12-17T10:22:57.772Z,80.43
2022-12-17T10:23:57.685Z,80.71
2022-12-17T10:24:57.598Z,80.24
2022-12-17T10:25:57.514Z,80.62
2022-12-17T10:26:57.426Z,81.18
2022-12-17T10:27:57.337Z,80.99
2022-12-17T10:28:57.254Z,81.84
2022-12-17T10:29:57.179Z,81.74
2022-12-17T10:30:57.141Z,81.93
2022-12-17T10:31:56.990Z,81.74
2022-12-17T10:32:56.904Z,81.56
2022-12-17T10:33:56.815Z,81.93
2022-12-17T10:35:01.852Z,81.74
2022-12-17T10:35:56.645Z,81.84
2022-12-17T10:36:56.559Z,82.31
2022-12-17T10:37:56.470Z,82.12
2022-12-17T10:38:56.386Z,82.22
2022-12-17T10:39:56.302Z,82.12
2022-12-17T10:40:56.212Z,83.07
2022-12-17T10:41:56.127Z,83.07
2022-12-17T10:42:56.042Z,82.69
2022-12-17T10:43:55.954Z,82.22
2022-12-17T10:44:55.867Z,82.41
2022-12-17T10:45:55.818Z,82.12
2022-12-17T10:46:55.735Z,82.12
2022-12-17T10:47:55.628Z,81.93
2022-12-17T10:48:55.521Z,81.93
2022-12-17T10:49:55.439Z,81.74
2022-12-17T10:50:55.352Z,81.56
2022-12-17T10:51:55.264Z,81.84
2022-12-17T10:52:55.176Z,81.60
2022-12-17T10:53:55.092Z,81.79
2022-12-17T10:54:55.006Z,81.60
2022-12-17T10:55:54.926Z,81.70
2022-12-17T10:56:54.830Z,81.60
2022-12-17T10:57:54.747Z,81.22
2022-12-17T10:58:54.661Z,80.75
2022-12-17T10:59:54.600Z,80.46
2022-12-17T11:00:54.490Z,80.27
2022-12-17T11:01:54.558Z,80.37
2022-12-17T11:02:54.560Z,80.37
2022-12-17T11:03:54.300Z,79.80
2022-12-17T11:04:54.144Z,79.43
2022-12-17T11:05:59.380Z,79.24
2022-12-17T11:06:53.974Z,79.33
2022-12-17T11:07:53.888Z,79.14
2022-12-17T11:08:53.802Z,78.95
2022-12-17T11:09:53.719Z,79.14
2022-12-17T11:10:53.629Z,79.05
2022-12-17T11:11:53.545Z,78.95
2022-12-17T11:12:53.460Z,79.05
2022-12-17T11:13:53.373Z,79.43
2022-12-17T11:14:53.287Z,79.71
2022-12-17T11:15:53.236Z,79.24
2022-12-17T11:16:53.120Z,78.95
2022-12-17T11:17:53.029Z,79.14
2022-12-17T11:18:52.942Z,79.61
2022-12-17T11:19:52.860Z,79.52
2022-12-17T11:20:52.774Z,79.90
2022-12-17T11:21:52.688Z,79.61
2022-12-17T11:22:52.599Z,79.80
2022-12-17T11:23:52.519Z,79.71
2022-12-17T11:24:52.427Z,80.27
2022-12-17T11:25:52.348Z,80.46
2022-12-17T11:26:52.258Z,80.75
2022-12-17T11:27:52.174Z,80.37
2022-12-17T11:28:52.088Z,79.90
2022-12-17T11:29:52.005Z,79.52
2022-12-17T11:30:51.972Z,79.61
2022-12-17T11:31:51.834Z,80.37
2022-12-17T11:32:51.749Z,80.27
2022-12-17T11:33:51.665Z,79.80
2022-12-17T11:34:51.577Z,80.56
2022-12-17T11:35:51.493Z,79.71
2022-12-17T11:36:51.403Z,80.08
2022-12-17T11:37:51.321Z,80.18
2022-12-17T11:38:51.239Z,79.71
2022-12-17T11:39:51.154Z,79.99
2022-12-17T11:40:51.062Z,79.71
2022-12-17T11:41:50.980Z,79.71
2022-12-17T11:42:50.890Z,80.27
2022-12-17T11:43:50.806Z,80.27
2022-12-17T11:44:50.726Z,80.84
2022-12-17T11:45:50.643Z,80.84
2022-12-17T11:46:50.579Z,80.84
2022-12-17T11:47:53.637Z,80.56
2022-12-17T11:48:50.381Z,80.65
2022-12-17T11:49:50.294Z,81.13
2022-12-17T11:50:50.214Z,81.79
2022-12-17T11:51:50.128Z,81.79
2022-12-17T11:52:50.037Z,82.07
2022-12-17T11:53:49.951Z,81.60
2022-12-17T11:54:49.869Z,81.60
2022-12-17T11:55:49.789Z,81.13
2022-12-17T11:56:49.702Z,81.32
2022-12-17T11:57:49.614Z,81.03
2022-12-17T11:58:49.525Z,81.70
2022-12-17T11:59:54.006Z,81.51
2022-12-17T12:00:49.352Z,82.07
2022-12-17T12:01:49.338Z,81.88
2022-12-17T12:02:49.244Z,81.17
2022-12-17T12:03:49.202Z,80.60
2022-12-17T12:04:49.013Z,80.51
2022-12-17T12:05:53.467Z,80.18
2022-12-17T12:06:48.851Z,79.52
2022-12-17T12:07:48.759Z,80.18
2022-12-17T12:08:48.673Z,79.80
2022-12-17T12:09:48.591Z,79.43
2022-12-17T12:10:48.502Z,79.71
2022-12-17T12:11:48.426Z,79.61
2022-12-17T12:12:48.333Z,79.99
2022-12-17T12:13:48.248Z,80.37
2022-12-17T12:14:48.163Z,80.37
2022-12-17T12:15:48.099Z,80.37
2022-12-17T12:16:48.036Z,80.27
2022-12-17T12:17:47.906Z,80.37
2022-12-17T12:18:47.821Z,79.90
2022-12-17T12:19:47.741Z,79.90
2022-12-17T12:20:47.650Z,79.94
2022-12-17T12:21:47.564Z,79.66
2022-12-17T12:22:47.478Z,79.85
2022-12-17T12:23:47.400Z,79.24
2022-12-17T12:24:47.313Z,79.05
2022-12-17T12:25:47.227Z,79.33
2022-12-17T12:26:47.137Z,79.05
2022-12-17T12:27:47.059Z,79.80
2022-12-17T12:28:46.973Z,79.61
2022-12-17T12:29:46.881Z,80.37
2022-12-17T12:30:46.800Z,80.75
2022-12-17T12:31:46.747Z,80.27
2022-12-17T12:32:46.626Z,80.46
2022-12-17T12:33:46.545Z,80.84
2022-12-17T12:34:46.458Z,81.13
2022-12-17T12:35:46.377Z,81.32
2022-12-17T12:36:46.290Z,81.13
2022-12-17T12:37:46.202Z,81.32
2022-12-17T12:38:46.956Z,81.32
2022-12-17T12:39:46.031Z,80.75
2022-12-17T12:40:45.945Z,80.27
2022-12-17T12:41:45.864Z,80.41
2022-12-17T12:42:45.776Z,80.46
2022-12-17T12:43:45.701Z,80.75
2022-12-17T12:44:49.540Z,80.41
2022-12-17T12:45:45.578Z,80.32
2022-12-17T12:46:45.437Z,80.22
2022-12-17T12:47:45.357Z,79.75
2022-12-17T12:48:45.263Z,79.56
2022-12-17T12:49:45.178Z,79.94
2022-12-17T12:50:45.095Z,79.37
2022-12-17T12:51:45.013Z,79.75